PWSweather.com
Personal Weather Stations
Station Observations
KOHAVON11
Long Road Station, Avon, OH 44011

Long Road StationAvon, OH 44011

Lat: 41.437, Lon: -82.0477

Elevation: 686

Station Type: Davis Vantage Pro2

http://www.avon-weather.com

High Low Average
Temperature 28.1°F-2.2°F 14.2°F-9.9°F 21.2°F-6.0°F
Dew Point 17.5°F-8.1°F 6.5°F-14.2°F 12.0°F-11.1°F
Winds 18.0 mph WNW29.0 mph WNW Calm Calm 3.9 mph 6.3 mph
Wind Gusts 19.0 mph30.6 mph -- 8.9 mph14.3 mph
Humidity 84% 51% 68%
Pressure 30.53 in1033.90 in 30.20 in1022.70 in -
Precipitation 0.00 in0.00 in - -
Hour Temp Dew Point Humidity Winds Wind Gusts Pressure Precip Precip Rate Daily Precip Total
12:01 AM 23.6°F-4.7°C 15.5°F-9.2°C 71% 3.0 mph W4.8 kmh W 18.0 mph29.0 kmh 30.20 in1022.7 mb 0.00 in0.0 mm 0.00 in/hr0.0 mm/hr 0.00 in0.0 mm
12:06 AM 23.3°F-4.8°C 15.6°F-9.1°C 72% 6.0 mph NW9.7 kmh NW 18.0 mph29.0 kmh 30.21 in1023.0 mb 0.00 in0.0 mm 0.00 in/hr0.0 mm/hr 0.00 in0.0 mm
12:11 AM 23.1°F-4.9°C 15.4°F-9.2°C 72% 10.0 mph W16.1 kmh W 18.0 mph29.0 kmh 30.20 in1022.7 mb 0.00 in0.0 mm 0.00 in/hr0.0 mm/hr 0.00 in0.0 mm
12:16 AM 23.1°F-4.9°C 15.4°F-9.2°C 72% 5.0 mph W8.0 kmh W 18.0 mph29.0 kmh 30.21 in1023.0 mb 0.00 in0.0 mm 0.00 in/hr0.0 mm/hr 0.00 in0.0 mm
12:21 AM 23.1°F-4.9°C 15.0°F-9.4°C 71% 18.0 mph WNW29.0 kmh WNW 18.0 mph29.0 kmh 30.21 in1023.0 mb 0.00 in0.0 mm 0.00 in/hr0.0 mm/hr 0.00 in0.0 mm
12:26 AM 23.1°F-4.9°C 14.7°F-9.6°C 70% 15.0 mph WNW24.1 kmh WNW 18.0 mph29.0 kmh 30.21 in1023.0 mb 0.00 in0.0 mm 0.00 in/hr0.0 mm/hr 0.00 in0.0 mm
12:31 AM 23.3°F-4.8°C 14.2°F-9.9°C 68% 7.0 mph WNW11.3 kmh WNW 18.0 mph29.0 kmh 30.21 in1023.0 mb 0.00 in0.0 mm 0.00 in/hr0.0 mm/hr 0.00 in0.0 mm
12:36 AM 23.5°F-4.7°C 14.4°F-9.8°C 68% 10.0 mph WSW16.1 kmh WSW 19.0 mph30.6 kmh 30.22 in1023.4 mb 0.00 in0.0 mm 0.00 in/hr0.0 mm/hr 0.00 in0.0 mm
12:41 AM 23.4°F-4.8°C 15.0°F-9.4°C 70% 2.0 mph N3.2 kmh N 19.0 mph30.6 kmh 30.22 in1023.4 mb 0.00 in0.0 mm 0.00 in/hr0.0 mm/hr 0.00 in0.0 mm
12:46 AM 23.3°F-4.8°C 15.2°F-9.3°C 71% 8.0 mph NW12.9 kmh NW 19.0 mph30.6 kmh 30.22 in1023.4 mb 0.00 in0.0 mm 0.00 in/hr0.0 mm/hr 0.00 in0.0 mm
12:51 AM 23.2°F-4.9°C 15.1°F-9.4°C 71% 6.0 mph W9.7 kmh W 19.0 mph30.6 kmh 30.22 in1023.4 mb 0.00 in0.0 mm 0.00 in/hr0.0 mm/hr 0.00 in0.0 mm
12:56 AM 23.0°F-5.0°C 15.3°F-9.3°C 72% 7.0 mph NW11.3 kmh NW 13.0 mph20.9 kmh 30.23 in1023.7 mb 0.00 in0.0 mm 0.00 in/hr0.0 mm/hr 0.00 in0.0 mm
01:01 AM 22.9°F-5.1°C 15.8°F-9.0°C 74% 15.0 mph W24.1 kmh W 15.0 mph24.1 kmh 30.23 in1023.7 mb 0.00 in0.0 mm 0.00 in/hr0.0 mm/hr 0.00 in0.0 mm
01:06 AM 22.8°F-5.1°C 16.0°F-8.9°C 75% 13.0 mph SW20.9 kmh SW 16.0 mph25.7 kmh 30.23 in1023.7 mb 0.00 in0.0 mm 0.00 in/hr0.0 mm/hr 0.00 in0.0 mm
01:11 AM 22.8°F-5.1°C 16.4°F-8.7°C 76% 3.0 mph WSW4.8 kmh WSW 16.0 mph25.7 kmh 30.23 in1023.7 mb 0.00 in0.0 mm 0.00 in/hr0.0 mm/hr 0.00 in0.0 mm
01:16 AM 22.7°F-5.2°C 16.3°F-8.7°C 76% 5.0 mph W8.0 kmh W 16.0 mph25.7 kmh 30.23 in1023.7 mb 0.00 in0.0 mm 0.00 in/hr0.0 mm/hr 0.00 in0.0 mm
01:21 AM 22.7°F-5.2°C 16.6°F-8.6°C 77% 1.0 mph W1.6 kmh W 16.0 mph25.7 kmh 30.23 in1023.7 mb 0.00 in0.0 mm 0.00 in/hr0.0 mm/hr 0.00 in0.0 mm
01:26 AM 22.6°F-5.2°C 16.8°F-8.4°C 78% 3.0 mph W4.8 kmh W 10.0 mph16.1 kmh 30.23 in1023.7 mb 0.00 in0.0 mm 0.00 in/hr0.0 mm/hr 0.00 in0.0 mm
01:31 AM 22.6°F-5.2°C 17.1°F-8.3°C 79% 5.0 mph W8.0 kmh W 10.0 mph16.1 kmh 30.23 in1023.7 mb 0.00 in0.0 mm 0.00 in/hr0.0 mm/hr 0.00 in0.0 mm
01:36 AM 22.5°F-5.3°C 17.0°F-8.3°C 79% 5.0 mph W8.0 kmh W 7.0 mph11.3 kmh 30.24 in1024.0 mb 0.00 in0.0 mm 0.00 in/hr0.0 mm/hr 0.00 in0.0 mm
01:41 AM 22.5°F-5.3°C 17.0°F-8.3°C 79% 10.0 mph SW16.1 kmh SW 12.0 mph19.3 kmh 30.24 in1024.0 mb 0.00 in0.0 mm 0.00 in/hr0.0 mm/hr 0.00 in0.0 mm
01:46 AM 22.3°F-5.4°C 17.1°F-8.3°C 80% 6.0 mph W9.7 kmh W 12.0 mph19.3 kmh 30.24 in1024.0 mb 0.00 in0.0 mm 0.00 in/hr0.0 mm/hr 0.00 in0.0 mm
01:51 AM 22.1°F-5.5°C 16.9°F-8.4°C 80% 7.0 mph WSW11.3 kmh WSW 12.0 mph19.3 kmh 30.25 in1024.4 mb 0.00 in0.0 mm 0.00 in/hr0.0 mm/hr 0.00 in0.0 mm
01:56 AM 22.0°F-5.6°C 17.1°F-8.3°C 81% 4.0 mph SW6.4 kmh SW 12.0 mph19.3 kmh 30.25 in1024.4 mb 0.00 in0.0 mm 0.00 in/hr0.0 mm/hr 0.00 in0.0 mm
02:01 AM 21.8°F-5.7°C 16.9°F-8.4°C 81% 6.0 mph WSW9.7 kmh WSW 12.0 mph19.3 kmh 30.25 in1024.4 mb 0.00 in0.0 mm 0.00 in/hr0.0 mm/hr 0.00 in0.0 mm
02:06 AM 21.7°F-5.7°C 16.8°F-8.4°C 81% 3.0 mph W4.8 kmh W 12.0 mph19.3 kmh 30.26 in1024.7 mb 0.00 in0.0 mm 0.00 in/hr0.0 mm/hr 0.00 in0.0 mm
02:11 AM 21.6°F-5.8°C 17.0°F-8.3°C 82% 9.0 mph W14.5 kmh W 10.0 mph16.1 kmh 30.26 in1024.7 mb 0.00 in0.0 mm 0.00 in/hr0.0 mm/hr 0.00 in0.0 mm
02:16 AM 21.6°F-5.8°C 17.0°F-8.3°C 82% 4.0 mph W6.4 kmh W 10.0 mph16.1 kmh 30.26 in1024.7 mb 0.00 in0.0 mm 0.00 in/hr0.0 mm/hr 0.00 in0.0 mm
02:21 AM 21.5°F-5.8°C 17.2°F-8.2°C 83% 9.0 mph WSW14.5 kmh WSW 9.0 mph14.5 kmh 30.26 in1024.7 mb 0.00 in0.0 mm 0.00 in/hr0.0 mm/hr 0.00 in0.0 mm
02:26 AM 21.5°F-5.8°C 17.2°F-8.2°C 83% 3.0 mph W4.8 kmh W 11.0 mph17.7 kmh 30.27 in1025.1 mb 0.00 in0.0 mm 0.00 in/hr0.0 mm/hr 0.00 in0.0 mm
02:31 AM 21.5°F-5.8°C 17.2°F-8.2°C 83% 7.0 mph W11.3 kmh W 14.0 mph22.5 kmh 30.27 in1025.1 mb 0.00 in0.0 mm 0.00 in/hr0.0 mm/hr 0.00 in0.0 mm
02:36 AM 21.5°F-5.8°C 17.5°F-8.1°C 84% 7.0 mph W11.3 kmh W 14.0 mph22.5 kmh 30.27 in1025.1 mb 0.00 in0.0 mm 0.00 in/hr0.0 mm/hr 0.00 in0.0 mm
02:41 AM 21.5°F-5.8°C 17.5°F-8.1°C 84% 4.0 mph W6.4 kmh W 14.0 mph22.5 kmh 30.27 in1025.1 mb 0.00 in0.0 mm 0.00 in/hr0.0 mm/hr 0.00 in0.0 mm
02:46 AM 21.4°F-5.9°C 17.4°F-8.1°C 84% 9.0 mph W14.5 kmh W 14.0 mph22.5 kmh 30.27 in1025.1 mb 0.00 in0.0 mm 0.00 in/hr0.0 mm/hr 0.01 in0.3 mm
02:51 AM 21.4°F-5.9°C 17.4°F-8.1°C 84% 6.0 mph WSW9.7 kmh WSW 11.0 mph17.7 kmh 30.28 in1025.4 mb 0.00 in0.0 mm 0.00 in/hr0.0 mm/hr 0.01 in0.3 mm
02:56 AM 21.2°F-6.0°C 17.2°F-8.2°C 84% 7.0 mph WSW11.3 kmh WSW 12.0 mph19.3 kmh 30.28 in1025.4 mb 0.00 in0.0 mm 0.00 in/hr0.0 mm/hr 0.01 in0.3 mm
03:01 AM 21.1°F-6.1°C 17.1°F-8.3°C 84% 7.0 mph WSW11.3 kmh WSW 12.0 mph19.3 kmh 30.28 in1025.4 mb 0.00 in0.0 mm 0.00 in/hr0.0 mm/hr 0.01 in0.3 mm
03:06 AM 20.9°F-6.2°C 16.9°F-8.4°C 84% 8.0 mph WSW12.9 kmh WSW 14.0 mph22.5 kmh 30.29 in1025.7 mb 0.00 in0.0 mm 0.00 in/hr0.0 mm/hr 0.01 in0.3 mm
03:11 AM 20.8°F-6.2°C 16.8°F-8.4°C 84% 4.0 mph WSW6.4 kmh WSW 14.0 mph22.5 kmh 30.29 in1025.7 mb 0.00 in0.0 mm 0.00 in/hr0.0 mm/hr 0.01 in0.3 mm
03:16 AM 20.7°F-6.3°C 16.7°F-8.5°C 84% 6.0 mph WSW9.7 kmh WSW 14.0 mph22.5 kmh 30.29 in1025.7 mb 0.00 in0.0 mm 0.00 in/hr0.0 mm/hr 0.01 in0.3 mm
03:21 AM 20.6°F-6.3°C 16.6°F-8.6°C 84% 4.0 mph WSW6.4 kmh WSW 14.0 mph22.5 kmh 30.29 in1025.7 mb 0.00 in0.0 mm 0.00 in/hr0.0 mm/hr 0.01 in0.3 mm
03:26 AM 20.5°F-6.4°C 16.5°F-8.6°C 84% 4.0 mph WSW6.4 kmh WSW 10.0 mph16.1 kmh 30.29 in1025.7 mb 0.00 in0.0 mm 0.00 in/hr0.0 mm/hr 0.01 in0.3 mm
03:31 AM 20.5°F-6.4°C 16.5°F-8.6°C 84% 8.0 mph WSW12.9 kmh WSW 10.0 mph16.1 kmh 30.30 in1026.1 mb 0.00 in0.0 mm 0.00 in/hr0.0 mm/hr 0.01 in0.3 mm
03:36 AM 20.5°F-6.4°C 16.5°F-8.6°C 84% 5.0 mph WSW8.0 kmh WSW 10.0 mph16.1 kmh 30.30 in1026.1 mb 0.00 in0.0 mm 0.00 in/hr0.0 mm/hr 0.01 in0.3 mm
03:41 AM 20.5°F-6.4°C 16.5°F-8.6°C 84% 8.0 mph SW12.9 kmh SW 10.0 mph16.1 kmh 30.30 in1026.1 mb 0.00 in0.0 mm 0.00 in/hr0.0 mm/hr 0.01 in0.3 mm
03:46 AM 20.5°F-6.4°C 16.5°F-8.6°C 84% 6.0 mph WSW9.7 kmh WSW 10.0 mph16.1 kmh 30.30 in1026.1 mb 0.00 in0.0 mm 0.00 in/hr0.0 mm/hr 0.01 in0.3 mm
03:51 AM 20.5°F-6.4°C 16.5°F-8.6°C 84% 7.0 mph SW11.3 kmh SW 10.0 mph16.1 kmh 30.30 in1026.1 mb 0.00 in0.0 mm 0.00 in/hr0.0 mm/hr 0.01 in0.3 mm
03:56 AM 20.5°F-6.4°C 16.5°F-8.6°C 84% 9.0 mph WSW14.5 kmh WSW 12.0 mph19.3 kmh 30.30 in1026.1 mb 0.00 in0.0 mm 0.00 in/hr0.0 mm/hr 0.01 in0.3 mm
04:01 AM 20.4°F-6.4°C 16.4°F-8.7°C 84% 7.0 mph W11.3 kmh W 15.0 mph24.1 kmh 30.30 in1026.1 mb 0.00 in0.0 mm 0.00 in/hr0.0 mm/hr 0.01 in0.3 mm
04:06 AM 20.3°F-6.5°C 16.3°F-8.7°C 84% 9.0 mph SW14.5 kmh SW 15.0 mph24.1 kmh 30.31 in1026.4 mb 0.00 in0.0 mm 0.00 in/hr0.0 mm/hr 0.01 in0.3 mm
04:11 AM 20.3°F-6.5°C 16.3°F-8.7°C 84% 4.0 mph W6.4 kmh W 15.0 mph24.1 kmh 30.31 in1026.4 mb 0.00 in0.0 mm 0.00 in/hr0.0 mm/hr 0.01 in0.3 mm
04:16 AM 20.3°F-6.5°C 16.3°F-8.7°C 84% 7.0 mph WSW11.3 kmh WSW 15.0 mph24.1 kmh 30.32 in1026.8 mb 0.00 in0.0 mm 0.00 in/hr0.0 mm/hr 0.01 in0.3 mm
04:21 AM 20.3°F-6.5°C 16.3°F-8.7°C 84% 4.0 mph WSW6.4 kmh WSW 12.0 mph19.3 kmh 30.32 in1026.8 mb 0.00 in0.0 mm 0.00 in/hr0.0 mm/hr 0.01 in0.3 mm
04:26 AM 20.3°F-6.5°C 16.3°F-8.7°C 84% 7.0 mph WNW11.3 kmh WNW 12.0 mph19.3 kmh 30.32 in1026.8 mb 0.00 in0.0 mm 0.00 in/hr0.0 mm/hr 0.01 in0.3 mm
04:31 AM 20.3°F-6.5°C 16.3°F-8.7°C 84% 4.0 mph W6.4 kmh W 12.0 mph19.3 kmh 30.32 in1026.8 mb 0.00 in0.0 mm 0.00 in/hr0.0 mm/hr 0.01 in0.3 mm
04:36 AM 20.3°F-6.5°C 16.3°F-8.7°C 84% 7.0 mph WSW11.3 kmh WSW 12.0 mph19.3 kmh 30.32 in1026.8 mb 0.00 in0.0 mm 0.00 in/hr0.0 mm/hr 0.01 in0.3 mm
04:41 AM 20.2°F-6.6°C 16.2°F-8.8°C 84% 9.0 mph WSW14.5 kmh WSW 11.0 mph17.7 kmh 30.32 in1026.8 mb 0.00 in0.0 mm 0.00 in/hr0.0 mm/hr 0.01 in0.3 mm
04:46 AM 20.2°F-6.6°C 16.2°F-8.8°C 84% 8.0 mph WSW12.9 kmh WSW 11.0 mph17.7 kmh 30.33 in1027.1 mb 0.00 in0.0 mm 0.00 in/hr0.0 mm/hr 0.01 in0.3 mm
04:51 AM 20.2°F-6.6°C 15.9°F-8.9°C 83% 8.0 mph WSW12.9 kmh WSW 11.0 mph17.7 kmh 30.33 in1027.1 mb 0.00 in0.0 mm 0.00 in/hr0.0 mm/hr 0.01 in0.3 mm
04:56 AM 20.2°F-6.6°C 15.9°F-8.9°C 83% 8.0 mph WSW12.9 kmh WSW 11.0 mph17.7 kmh 30.33 in1027.1 mb 0.00 in0.0 mm 0.00 in/hr0.0 mm/hr 0.01 in0.3 mm
05:01 AM 20.2°F-6.6°C 15.9°F-8.9°C 83% 6.0 mph WSW9.7 kmh WSW 13.0 mph20.9 kmh 30.33 in1027.1 mb 0.00 in0.0 mm 0.00 in/hr0.0 mm/hr 0.01 in0.3 mm
05:06 AM 20.3°F-6.5°C 16.0°F-8.9°C 83% 8.0 mph W12.9 kmh W 13.0 mph20.9 kmh 30.33 in1027.1 mb 0.00 in0.0 mm 0.00 in/hr0.0 mm/hr 0.01 in0.3 mm
05:11 AM 20.4°F-6.4°C 16.1°F-8.8°C 83% 8.0 mph WSW12.9 kmh WSW 13.0 mph20.9 kmh 30.34 in1027.4 mb 0.00 in0.0 mm 0.00 in/hr0.0 mm/hr 0.01 in0.3 mm
05:16 AM 20.4°F-6.4°C 15.8°F-9.0°C 82% 4.0 mph WSW6.4 kmh WSW 13.0 mph20.9 kmh 30.34 in1027.4 mb 0.00 in0.0 mm 0.00 in/hr0.0 mm/hr 0.01 in0.3 mm
05:21 AM 20.5°F-6.4°C 15.9°F-8.9°C 82% 3.0 mph WNW4.8 kmh WNW 11.0 mph17.7 kmh 30.34 in1027.4 mb 0.00 in0.0 mm 0.00 in/hr0.0 mm/hr 0.01 in0.3 mm
05:26 AM 20.5°F-6.4°C 15.9°F-8.9°C 82% 3.0 mph WSW4.8 kmh WSW 11.0 mph17.7 kmh 30.34 in1027.4 mb 0.00 in0.0 mm 0.00 in/hr0.0 mm/hr 0.01 in0.3 mm
05:31 AM 20.5°F-6.4°C 15.9°F-8.9°C 82% 8.0 mph W12.9 kmh W 10.0 mph16.1 kmh 30.35 in1027.8 mb 0.00 in0.0 mm 0.00 in/hr0.0 mm/hr 0.01 in0.3 mm
05:36 AM 20.5°F-6.4°C 15.6°F-9.1°C 81% 3.0 mph WSW4.8 kmh WSW 10.0 mph16.1 kmh 30.35 in1027.8 mb 0.00 in0.0 mm 0.00 in/hr0.0 mm/hr 0.01 in0.3 mm
05:41 AM 20.6°F-6.3°C 15.7°F-9.1°C 81% 6.0 mph W9.7 kmh W 10.0 mph16.1 kmh 30.35 in1027.8 mb 0.00 in0.0 mm 0.00 in/hr0.0 mm/hr 0.01 in0.3 mm
05:46 AM 20.6°F-6.3°C 15.4°F-9.2°C 80% 8.0 mph WNW12.9 kmh WNW 13.0 mph20.9 kmh 30.36 in1028.1 mb 0.00 in0.0 mm 0.00 in/hr0.0 mm/hr 0.01 in0.3 mm
05:51 AM 20.9°F-6.2°C 15.1°F-9.4°C 78% 11.0 mph W17.7 kmh W 15.0 mph24.1 kmh 30.36 in1028.1 mb 0.00 in0.0 mm 0.00 in/hr0.0 mm/hr 0.01 in0.3 mm
05:56 AM 21.2°F-6.0°C 14.8°F-9.6°C 76% 8.0 mph W12.9 kmh W 17.0 mph27.4 kmh 30.36 in1028.1 mb 0.00 in0.0 mm 0.00 in/hr0.0 mm/hr 0.01 in0.3 mm
06:01 AM 21.4°F-5.9°C 14.1°F-9.9°C 73% 6.0 mph WNW9.7 kmh WNW 17.0 mph27.4 kmh 30.37 in1028.4 mb 0.00 in0.0 mm 0.00 in/hr0.0 mm/hr 0.01 in0.3 mm
06:06 AM 21.6°F-5.8°C 13.9°F-10.1°C 72% 13.0 mph WNW20.9 kmh WNW 17.0 mph27.4 kmh 30.37 in1028.4 mb 0.00 in0.0 mm 0.00 in/hr0.0 mm/hr 0.01 in0.3 mm
06:11 AM 21.7°F-5.7°C 13.4°F-10.3°C 70% 13.0 mph NW20.9 kmh NW 17.0 mph27.4 kmh 30.37 in1028.4 mb 0.00 in0.0 mm 0.00 in/hr0.0 mm/hr 0.01 in0.3 mm
06:16 AM 21.8°F-5.7°C 13.1°F-10.5°C 69% 3.0 mph WNW4.8 kmh WNW 17.0 mph27.4 kmh 30.37 in1028.4 mb 0.00 in0.0 mm 0.00 in/hr0.0 mm/hr 0.01 in0.3 mm
06:21 AM 21.8°F-5.7°C 13.1°F-10.5°C 69% 7.0 mph WNW11.3 kmh WNW 17.0 mph27.4 kmh 30.38 in1028.8 mb 0.00 in0.0 mm 0.00 in/hr0.0 mm/hr 0.01 in0.3 mm
06:26 AM 21.8°F-5.7°C 12.4°F-10.9°C 67% 7.0 mph W11.3 kmh W 13.0 mph20.9 kmh 30.38 in1028.8 mb 0.00 in0.0 mm 0.00 in/hr0.0 mm/hr 0.01 in0.3 mm
06:31 AM 21.8°F-5.7°C 12.4°F-10.9°C 67% 3.0 mph W4.8 kmh W 13.0 mph20.9 kmh 30.38 in1028.8 mb 0.00 in0.0 mm 0.00 in/hr0.0 mm/hr 0.01 in0.3 mm
06:36 AM 21.9°F-5.6°C 12.5°F-10.8°C 67% 6.0 mph WNW9.7 kmh WNW 12.0 mph19.3 kmh 30.39 in1029.1 mb 0.00 in0.0 mm 0.00 in/hr0.0 mm/hr 0.01 in0.3 mm
06:41 AM 21.9°F-5.6°C 12.2°F-11.0°C 66% 11.0 mph WNW17.7 kmh WNW 14.0 mph22.5 kmh 30.39 in1029.1 mb 0.00 in0.0 mm 0.00 in/hr0.0 mm/hr 0.01 in0.3 mm
06:46 AM 21.9°F-5.6°C 11.8°F-11.2°C 65% 9.0 mph WNW14.5 kmh WNW 14.0 mph22.5 kmh 30.39 in1029.1 mb 0.00 in0.0 mm 0.00 in/hr0.0 mm/hr 0.01 in0.3 mm
06:51 AM 21.9°F-5.6°C 11.8°F-11.2°C 65% 7.0 mph WNW11.3 kmh WNW 14.0 mph22.5 kmh 30.39 in1029.1 mb 0.00 in0.0 mm 0.00 in/hr0.0 mm/hr 0.01 in0.3 mm
06:56 AM 22.0°F-5.6°C 11.6°F-11.3°C 64% 9.0 mph WNW14.5 kmh WNW 14.0 mph22.5 kmh 30.40 in1029.5 mb 0.00 in0.0 mm 0.00 in/hr0.0 mm/hr 0.01 in0.3 mm
07:01 AM 22.0°F-5.6°C 11.6°F-11.3°C 64% 12.0 mph WNW19.3 kmh WNW 16.0 mph25.7 kmh 30.40 in1029.5 mb 0.00 in0.0 mm 0.00 in/hr0.0 mm/hr 0.01 in0.3 mm
07:06 AM 22.1°F-5.5°C 11.3°F-11.5°C 63% 6.0 mph NW9.7 kmh NW 16.0 mph25.7 kmh 30.41 in1029.8 mb 0.00 in0.0 mm 0.00 in/hr0.0 mm/hr 0.01 in0.3 mm
07:11 AM 22.0°F-5.6°C 10.8°F-11.8°C 62% 5.0 mph W8.0 kmh W 16.0 mph25.7 kmh 30.41 in1029.8 mb 0.00 in0.0 mm 0.00 in/hr0.0 mm/hr 0.01 in0.3 mm
07:16 AM 22.0°F-5.6°C 10.8°F-11.8°C 62% 12.0 mph NW19.3 kmh NW 17.0 mph27.4 kmh 30.41 in1029.8 mb 0.00 in0.0 mm 0.00 in/hr0.0 mm/hr 0.01 in0.3 mm
07:21 AM 22.0°F-5.6°C 10.5°F-11.9°C 61% 3.0 mph WNW4.8 kmh WNW 17.0 mph27.4 kmh 30.41 in1029.8 mb 0.00 in0.0 mm 0.00 in/hr0.0 mm/hr 0.01 in0.3 mm
07:26 AM 21.9°F-5.6°C 10.0°F-12.2°C 60% 4.0 mph NW6.4 kmh NW 17.0 mph27.4 kmh 30.41 in1029.8 mb 0.00 in0.0 mm 0.00 in/hr0.0 mm/hr 0.01 in0.3 mm
07:31 AM 21.8°F-5.7°C 9.9°F-12.3°C 60% 6.0 mph NW9.7 kmh NW 17.0 mph27.4 kmh 30.42 in1030.1 mb 0.00 in0.0 mm 0.00 in/hr0.0 mm/hr 0.01 in0.3 mm
07:36 AM 21.8°F-5.7°C 9.9°F-12.3°C 60% 8.0 mph NW12.9 kmh NW 12.0 mph19.3 kmh 30.42 in1030.1 mb 0.00 in0.0 mm 0.00 in/hr0.0 mm/hr 0.01 in0.3 mm
07:41 AM 21.8°F-5.7°C 9.9°F-12.3°C 60% 9.0 mph WNW14.5 kmh WNW 12.0 mph19.3 kmh 30.43 in1030.5 mb 0.00 in0.0 mm 0.00 in/hr0.0 mm/hr 0.01 in0.3 mm
07:46 AM 21.8°F-5.7°C 9.5°F-12.5°C 59% 9.0 mph NW14.5 kmh NW 14.0 mph22.5 kmh 30.43 in1030.5 mb 0.00 in0.0 mm 0.00 in/hr0.0 mm/hr 0.01 in0.3 mm
07:51 AM 21.9°F-5.6°C 9.6°F-12.4°C 59% 3.0 mph NW4.8 kmh NW 14.0 mph22.5 kmh 30.43 in1030.5 mb 0.00 in0.0 mm 0.00 in/hr0.0 mm/hr 0.01 in0.3 mm
07:56 AM 21.9°F-5.6°C 9.6°F-12.4°C 59% 8.0 mph W12.9 kmh W 14.0 mph22.5 kmh 30.43 in1030.5 mb 0.00 in0.0 mm 0.00 in/hr0.0 mm/hr 0.01 in0.3 mm
08:01 AM 22.0°F-5.6°C 9.7°F-12.4°C 59% 10.0 mph WNW16.1 kmh WNW 14.0 mph22.5 kmh 30.43 in1030.5 mb 0.00 in0.0 mm 0.00 in/hr0.0 mm/hr 0.01 in0.3 mm
08:06 AM 22.0°F-5.6°C 9.7°F-12.4°C 59% 4.0 mph NW6.4 kmh NW 14.0 mph22.5 kmh 30.44 in1030.8 mb 0.00 in0.0 mm 0.00 in/hr0.0 mm/hr 0.01 in0.3 mm
08:11 AM 22.1°F-5.5°C 9.4°F-12.6°C 58% 6.0 mph NW9.7 kmh NW 14.0 mph22.5 kmh 30.44 in1030.8 mb 0.00 in0.0 mm 0.00 in/hr0.0 mm/hr 0.01 in0.3 mm
08:16 AM 22.1°F-5.5°C 9.4°F-12.6°C 58% 5.0 mph WNW8.0 kmh WNW 14.0 mph22.5 kmh 30.45 in1031.2 mb 0.00 in0.0 mm 0.00 in/hr0.0 mm/hr 0.01 in0.3 mm
08:21 AM 22.1°F-5.5°C 9.8°F-12.3°C 59% 7.0 mph NW11.3 kmh NW 14.0 mph22.5 kmh 30.45 in1031.2 mb 0.00 in0.0 mm 0.00 in/hr0.0 mm/hr 0.01 in0.3 mm
08:26 AM 22.2°F-5.4°C 10.3°F-12.1°C 60% 10.0 mph W16.1 kmh W 13.0 mph20.9 kmh 30.46 in1031.5 mb 0.00 in0.0 mm 0.00 in/hr0.0 mm/hr 0.01 in0.3 mm
08:31 AM 22.2°F-5.4°C 10.3°F-12.1°C 60% 4.0 mph NW6.4 kmh NW 13.0 mph20.9 kmh 30.46 in1031.5 mb 0.00 in0.0 mm 0.00 in/hr0.0 mm/hr 0.01 in0.3 mm
08:36 AM 22.3°F-5.4°C 10.7°F-11.8°C 61% 4.0 mph NW6.4 kmh NW 12.0 mph19.3 kmh 30.46 in1031.5 mb 0.00 in0.0 mm 0.00 in/hr0.0 mm/hr 0.01 in0.3 mm
08:41 AM 22.4°F-5.3°C 11.2°F-11.6°C 62% 3.0 mph NW4.8 kmh NW 12.0 mph19.3 kmh 30.47 in1031.8 mb 0.00 in0.0 mm 0.00 in/hr0.0 mm/hr 0.01 in0.3 mm
08:46 AM 22.4°F-5.3°C 11.2°F-11.6°C 62% 8.0 mph WNW12.9 kmh WNW 12.0 mph19.3 kmh 30.47 in1031.8 mb 0.00 in0.0 mm 0.00 in/hr0.0 mm/hr 0.01 in0.3 mm
08:51 AM 22.4°F-5.3°C 11.2°F-11.6°C 62% 3.0 mph WNW4.8 kmh WNW 12.0 mph19.3 kmh 30.47 in1031.8 mb 0.00 in0.0 mm 0.00 in/hr0.0 mm/hr 0.01 in0.3 mm
08:56 AM 22.5°F-5.3°C 10.9°F-11.7°C 61% 9.0 mph WNW14.5 kmh WNW 13.0 mph20.9 kmh 30.47 in1031.8 mb 0.00 in0.0 mm 0.00 in/hr0.0 mm/hr 0.01 in0.3 mm
09:01 AM 22.5°F-5.3°C 10.9°F-11.7°C 61% 7.0 mph NW11.3 kmh NW 13.0 mph20.9 kmh 30.47 in1031.8 mb 0.00 in0.0 mm 0.00 in/hr0.0 mm/hr 0.01 in0.3 mm
09:06 AM 22.6°F-5.2°C 11.0°F-11.7°C 61% 3.0 mph NW4.8 kmh NW 13.0 mph20.9 kmh 30.48 in1032.2 mb 0.00 in0.0 mm 0.00 in/hr0.0 mm/hr 0.01 in0.3 mm
09:11 AM 22.7°F-5.2°C 11.1°F-11.6°C 61% 3.0 mph NW4.8 kmh NW 13.0 mph20.9 kmh 30.48 in1032.2 mb 0.00 in0.0 mm 0.00 in/hr0.0 mm/hr 0.01 in0.3 mm
09:16 AM 22.7°F-5.2°C 11.5°F-11.4°C 62% 7.0 mph WNW11.3 kmh WNW 12.0 mph19.3 kmh 30.48 in1032.2 mb 0.00 in0.0 mm 0.00 in/hr0.0 mm/hr 0.01 in0.3 mm
09:21 AM 22.7°F-5.2°C 11.5°F-11.4°C 62% 5.0 mph N8.0 kmh N 12.0 mph19.3 kmh 30.48 in1032.2 mb 0.00 in0.0 mm 0.00 in/hr0.0 mm/hr 0.01 in0.3 mm
09:26 AM 22.8°F-5.1°C 12.0°F-11.1°C 63% 7.0 mph NW11.3 kmh NW 10.0 mph16.1 kmh 30.48 in1032.2 mb 0.00 in0.0 mm 0.00 in/hr0.0 mm/hr 0.01 in0.3 mm
09:31 AM 22.7°F-5.2°C 11.5°F-11.4°C 62% 3.0 mph WNW4.8 kmh WNW 10.0 mph16.1 kmh 30.48 in1032.2 mb 0.00 in0.0 mm 0.00 in/hr0.0 mm/hr 0.01 in0.3 mm
09:36 AM 22.7°F-5.2°C 11.9°F-11.2°C 63% 6.0 mph WNW9.7 kmh WNW 10.0 mph16.1 kmh 30.48 in1032.2 mb 0.00 in0.0 mm 0.00 in/hr0.0 mm/hr 0.01 in0.3 mm
09:41 AM 22.7°F-5.2°C 11.9°F-11.2°C 63% 6.0 mph WNW9.7 kmh WNW 10.0 mph16.1 kmh 30.48 in1032.2 mb 0.00 in0.0 mm 0.00 in/hr0.0 mm/hr 0.01 in0.3 mm
09:46 AM 22.8°F-5.1°C 12.0°F-11.1°C 63% 2.0 mph WNW3.2 kmh WNW 9.0 mph14.5 kmh 30.49 in1032.5 mb 0.00 in0.0 mm 0.00 in/hr0.0 mm/hr 0.01 in0.3 mm
09:51 AM 22.9°F-5.1°C 12.1°F-11.1°C 63% 4.0 mph NW6.4 kmh NW 9.0 mph14.5 kmh 30.49 in1032.5 mb 0.00 in0.0 mm 0.00 in/hr0.0 mm/hr 0.01 in0.3 mm
09:56 AM 23.0°F-5.0°C 12.2°F-11.0°C 63% 6.0 mph WNW9.7 kmh WNW 9.0 mph14.5 kmh 30.49 in1032.5 mb 0.00 in0.0 mm 0.00 in/hr0.0 mm/hr 0.01 in0.3 mm
10:01 AM 23.0°F-5.0°C 11.8°F-11.2°C 62% 3.0 mph NW4.8 kmh NW 8.0 mph12.9 kmh 30.50 in1032.8 mb 0.00 in0.0 mm 0.00 in/hr0.0 mm/hr 0.01 in0.3 mm
10:06 AM 23.1°F-4.9°C 12.2°F-11.0°C 63% 4.0 mph NW6.4 kmh NW 10.0 mph16.1 kmh 30.49 in1032.5 mb 0.00 in0.0 mm 0.00 in/hr0.0 mm/hr 0.01 in0.3 mm
10:11 AM 23.2°F-4.9°C 12.0°F-11.1°C 62% 5.0 mph W8.0 kmh W 10.0 mph16.1 kmh 30.50 in1032.8 mb 0.00 in0.0 mm 0.00 in/hr0.0 mm/hr 0.01 in0.3 mm
10:16 AM 23.2°F-4.9°C 11.6°F-11.3°C 61% 5.0 mph W8.0 kmh W 10.0 mph16.1 kmh 30.50 in1032.8 mb 0.00 in0.0 mm 0.00 in/hr0.0 mm/hr 0.01 in0.3 mm
10:21 AM 23.3°F-4.8°C 12.1°F-11.1°C 62% 4.0 mph NW6.4 kmh NW 10.0 mph16.1 kmh 30.50 in1032.8 mb 0.00 in0.0 mm 0.00 in/hr0.0 mm/hr 0.01 in0.3 mm
10:26 AM 23.4°F-4.8°C 12.2°F-11.0°C 62% 1.0 mph W1.6 kmh W 9.0 mph14.5 kmh 30.50 in1032.8 mb 0.00 in0.0 mm 0.00 in/hr0.0 mm/hr 0.01 in0.3 mm
10:31 AM 23.5°F-4.7°C 11.9°F-11.2°C 61% 3.0 mph W4.8 kmh W 9.0 mph14.5 kmh 30.51 in1033.2 mb 0.00 in0.0 mm 0.00 in/hr0.0 mm/hr 0.01 in0.3 mm
10:36 AM 23.6°F-4.7°C 12.3°F-10.9°C 62% 3.0 mph W4.8 kmh W 8.0 mph12.9 kmh 30.51 in1033.2 mb 0.00 in0.0 mm 0.00 in/hr0.0 mm/hr 0.01 in0.3 mm
10:41 AM 23.7°F-4.6°C 13.2°F-10.4°C 64% 5.0 mph WSW8.0 kmh WSW 8.0 mph12.9 kmh 30.51 in1033.2 mb 0.00 in0.0 mm 0.00 in/hr0.0 mm/hr 0.01 in0.3 mm
10:46 AM 23.8°F-4.6°C 13.6°F-10.2°C 65% 4.0 mph W6.4 kmh W 7.0 mph11.3 kmh 30.51 in1033.2 mb 0.00 in0.0 mm 0.00 in/hr0.0 mm/hr 0.01 in0.3 mm
10:51 AM 23.9°F-4.5°C 13.7°F-10.2°C 65% 4.0 mph W6.4 kmh W 7.0 mph11.3 kmh 30.52 in1033.5 mb 0.00 in0.0 mm 0.00 in/hr0.0 mm/hr 0.01 in0.3 mm
10:56 AM 24.0°F-4.4°C 13.8°F-10.1°C 65% 4.0 mph SW6.4 kmh SW 7.0 mph11.3 kmh 30.52 in1033.5 mb 0.00 in0.0 mm 0.00 in/hr0.0 mm/hr 0.01 in0.3 mm
11:01 AM 24.0°F-4.4°C 13.8°F-10.1°C 65% 3.0 mph WSW4.8 kmh WSW 7.0 mph11.3 kmh 30.52 in1033.5 mb 0.00 in0.0 mm 0.00 in/hr0.0 mm/hr 0.01 in0.3 mm
11:06 AM 24.0°F-4.4°C 14.2°F-9.9°C 66% 2.0 mph WSW3.2 kmh WSW 7.0 mph11.3 kmh 30.52 in1033.5 mb 0.00 in0.0 mm 0.00 in/hr0.0 mm/hr 0.02 in0.5 mm
11:11 AM 24.0°F-4.4°C 14.5°F-9.7°C 67% 1.0 mph SW1.6 kmh SW 7.0 mph11.3 kmh 30.52 in1033.5 mb 0.00 in0.0 mm 0.00 in/hr0.0 mm/hr 0.02 in0.5 mm
11:16 AM 24.0°F-4.4°C 14.9°F-9.5°C 68% 3.0 mph WSW4.8 kmh WSW 6.0 mph9.7 kmh 30.52 in1033.5 mb 0.00 in0.0 mm 0.00 in/hr0.0 mm/hr 0.02 in0.5 mm
11:21 AM 23.7°F-4.6°C 14.9°F-9.5°C 69% 2.0 mph WSW3.2 kmh WSW 6.0 mph9.7 kmh 30.53 in1033.9 mb 0.00 in0.0 mm 0.00 in/hr0.0 mm/hr 0.02 in0.5 mm
11:26 AM 23.5°F-4.7°C 14.8°F-9.6°C 69% 1.0 mph SW1.6 kmh SW 6.0 mph9.7 kmh 30.53 in1033.9 mb 0.00 in0.0 mm 0.00 in/hr0.0 mm/hr 0.02 in0.5 mm
11:31 AM 23.4°F-4.8°C 15.0°F-9.4°C 70% 4.0 mph SW6.4 kmh SW 6.0 mph9.7 kmh 30.52 in1033.5 mb 0.00 in0.0 mm 0.00 in/hr0.0 mm/hr 0.02 in0.5 mm
11:36 AM 23.3°F-4.8°C 14.9°F-9.5°C 70% 3.0 mph WSW4.8 kmh WSW 5.0 mph8.0 kmh 30.52 in1033.5 mb 0.00 in0.0 mm 0.00 in/hr0.0 mm/hr 0.02 in0.5 mm
11:41 AM 23.2°F-4.9°C 14.8°F-9.6°C 70% 2.0 mph SW3.2 kmh SW 5.0 mph8.0 kmh 30.52 in1033.5 mb 0.00 in0.0 mm 0.00 in/hr0.0 mm/hr 0.02 in0.5 mm
11:46 AM 23.2°F-4.9°C 14.8°F-9.6°C 70% 2.0 mph SW3.2 kmh SW 7.0 mph11.3 kmh 30.53 in1033.9 mb 0.00 in0.0 mm 0.00 in/hr0.0 mm/hr 0.02 in0.5 mm
11:51 AM 23.3°F-4.8°C 14.6°F-9.7°C 69% 4.0 mph SW6.4 kmh SW 7.0 mph11.3 kmh 30.53 in1033.9 mb 0.00 in0.0 mm 0.00 in/hr0.0 mm/hr 0.02 in0.5 mm
11:56 AM 23.4°F-4.8°C 14.7°F-9.6°C 69% 5.0 mph WSW8.0 kmh WSW 7.0 mph11.3 kmh 30.53 in1033.9 mb 0.00 in0.0 mm 0.00 in/hr0.0 mm/hr 0.02 in0.5 mm
12:01 PM 23.2°F-4.9°C 14.5°F-9.7°C 69% 2.0 mph SW3.2 kmh SW 8.0 mph12.9 kmh 30.53 in1033.9 mb 0.00 in0.0 mm 0.00 in/hr0.0 mm/hr 0.02 in0.5 mm
12:06 PM 23.3°F-4.8°C 14.6°F-9.7°C 69% 2.0 mph SW3.2 kmh SW 8.0 mph12.9 kmh 30.53 in1033.9 mb 0.00 in0.0 mm 0.00 in/hr0.0 mm/hr 0.02 in0.5 mm
12:11 PM 23.2°F-4.9°C 14.1°F-9.9°C 68% 2.0 mph WSW3.2 kmh WSW 8.0 mph12.9 kmh 30.53 in1033.9 mb 0.00 in0.0 mm 0.00 in/hr0.0 mm/hr 0.02 in0.5 mm
12:16 PM 23.2°F-4.9°C 14.1°F-9.9°C 68% 2.0 mph WSW3.2 kmh WSW 8.0 mph12.9 kmh 30.53 in1033.9 mb 0.00 in0.0 mm 0.00 in/hr0.0 mm/hr 0.02 in0.5 mm
12:21 PM 23.2°F-4.9°C 14.1°F-9.9°C 68% 3.0 mph WSW4.8 kmh WSW 9.0 mph14.5 kmh 30.53 in1033.9 mb 0.00 in0.0 mm 0.00 in/hr0.0 mm/hr 0.02 in0.5 mm
12:26 PM 23.2°F-4.9°C 14.1°F-9.9°C 68% 4.0 mph WSW6.4 kmh WSW 9.0 mph14.5 kmh 30.53 in1033.9 mb 0.00 in0.0 mm 0.00 in/hr0.0 mm/hr 0.02 in0.5 mm
12:31 PM 23.4°F-4.8°C 14.3°F-9.8°C 68% 2.0 mph SW3.2 kmh SW 9.0 mph14.5 kmh 30.53 in1033.9 mb 0.00 in0.0 mm 0.00 in/hr0.0 mm/hr 0.02 in0.5 mm
12:36 PM 24.1°F-4.4°C 15.0°F-9.4°C 68% 4.0 mph WSW6.4 kmh WSW 9.0 mph14.5 kmh 30.53 in1033.9 mb 0.00 in0.0 mm 0.00 in/hr0.0 mm/hr 0.02 in0.5 mm
12:41 PM 24.6°F-4.1°C 15.1°F-9.4°C 67% 2.0 mph SW3.2 kmh SW 6.0 mph9.7 kmh 30.53 in1033.9 mb 0.00 in0.0 mm 0.00 in/hr0.0 mm/hr 0.02 in0.5 mm
12:46 PM 24.9°F-3.9°C 15.0°F-9.4°C 66% 3.0 mph SW4.8 kmh SW 8.0 mph12.9 kmh 30.53 in1033.9 mb 0.00 in0.0 mm 0.00 in/hr0.0 mm/hr 0.02 in0.5 mm
12:51 PM 25.3°F-3.7°C 14.3°F-9.8°C 63% 3.0 mph W4.8 kmh W 8.0 mph12.9 kmh 30.52 in1033.5 mb 0.00 in0.0 mm 0.00 in/hr0.0 mm/hr 0.02 in0.5 mm
12:56 PM 24.8°F-4.0°C 13.1°F-10.5°C 61% 4.0 mph WSW6.4 kmh WSW 8.0 mph12.9 kmh 30.52 in1033.5 mb 0.00 in0.0 mm 0.00 in/hr0.0 mm/hr 0.02 in0.5 mm
01:01 PM 24.4°F-4.2°C 12.3°F-10.9°C 60% 6.0 mph WSW9.7 kmh WSW 8.0 mph12.9 kmh 30.52 in1033.5 mb 0.00 in0.0 mm 0.00 in/hr0.0 mm/hr 0.02 in0.5 mm
01:06 PM 24.0°F-4.4°C 12.0°F-11.1°C 60% 5.0 mph WSW8.0 kmh WSW 8.0 mph12.9 kmh 30.52 in1033.5 mb 0.00 in0.0 mm 0.00 in/hr0.0 mm/hr 0.02 in0.5 mm
01:11 PM 24.2°F-4.3°C 12.1°F-11.1°C 60% 3.0 mph WSW4.8 kmh WSW 8.0 mph12.9 kmh 30.52 in1033.5 mb 0.00 in0.0 mm 0.00 in/hr0.0 mm/hr 0.02 in0.5 mm
01:16 PM 24.5°F-4.2°C 12.4°F-10.9°C 60% 3.0 mph WSW4.8 kmh WSW 9.0 mph14.5 kmh 30.52 in1033.5 mb 0.00 in0.0 mm 0.00 in/hr0.0 mm/hr 0.02 in0.5 mm
01:21 PM 24.3°F-4.3°C 11.8°F-11.2°C 59% 4.0 mph WSW6.4 kmh WSW 9.0 mph14.5 kmh 30.53 in1033.9 mb 0.00 in0.0 mm 0.00 in/hr0.0 mm/hr 0.02 in0.5 mm
01:26 PM 24.3°F-4.3°C 11.8°F-11.2°C 59% 4.0 mph SW6.4 kmh SW 9.0 mph14.5 kmh 30.53 in1033.9 mb 0.00 in0.0 mm 0.00 in/hr0.0 mm/hr 0.02 in0.5 mm
01:31 PM 24.4°F-4.2°C 11.9°F-11.2°C 59% Calm Calm 9.0 mph14.5 kmh 30.52 in1033.5 mb 0.00 in0.0 mm 0.00 in/hr0.0 mm/hr 0.02 in0.5 mm
01:36 PM 24.6°F-4.1°C 12.1°F-11.1°C 59% 4.0 mph W6.4 kmh W 5.0 mph8.0 kmh 30.53 in1033.9 mb 0.00 in0.0 mm 0.00 in/hr0.0 mm/hr 0.02 in0.5 mm
01:41 PM 25.0°F-3.9°C 12.1°F-11.1°C 58% 2.0 mph WSW3.2 kmh WSW 9.0 mph14.5 kmh 30.52 in1033.5 mb 0.00 in0.0 mm 0.00 in/hr0.0 mm/hr 0.02 in0.5 mm
01:46 PM 25.9°F-3.4°C 12.5°F-10.8°C 57% 1.0 mph WSW1.6 kmh WSW 9.0 mph14.5 kmh 30.52 in1033.5 mb 0.00 in0.0 mm 0.00 in/hr0.0 mm/hr 0.02 in0.5 mm
01:51 PM 26.4°F-3.1°C 12.6°F-10.8°C 56% 3.0 mph WSW4.8 kmh WSW 9.0 mph14.5 kmh 30.52 in1033.5 mb 0.00 in0.0 mm 0.00 in/hr0.0 mm/hr 0.02 in0.5 mm
01:56 PM 26.3°F-3.2°C 12.1°F-11.1°C 55% 2.0 mph WSW3.2 kmh WSW 9.0 mph14.5 kmh 30.52 in1033.5 mb 0.00 in0.0 mm 0.00 in/hr0.0 mm/hr 0.02 in0.5 mm
02:01 PM 26.9°F-2.8°C 12.6°F-10.8°C 55% 3.0 mph SW4.8 kmh SW 7.0 mph11.3 kmh 30.52 in1033.5 mb 0.00 in0.0 mm 0.00 in/hr0.0 mm/hr 0.02 in0.5 mm
02:06 PM 27.2°F-2.7°C 12.1°F-11.1°C 53% 3.0 mph WSW4.8 kmh WSW 8.0 mph12.9 kmh 30.52 in1033.5 mb 0.00 in0.0 mm 0.00 in/hr0.0 mm/hr 0.02 in0.5 mm
02:11 PM 27.3°F-2.6°C 12.1°F-11.1°C 53% 5.0 mph S8.0 kmh S 8.0 mph12.9 kmh 30.52 in1033.5 mb 0.00 in0.0 mm 0.00 in/hr0.0 mm/hr 0.02 in0.5 mm
02:16 PM 27.6°F-2.4°C 12.0°F-11.1°C 52% 4.0 mph WSW6.4 kmh WSW 8.0 mph12.9 kmh 30.52 in1033.5 mb 0.00 in0.0 mm 0.00 in/hr0.0 mm/hr 0.02 in0.5 mm
02:21 PM 27.7°F-2.4°C 11.6°F-11.3°C 51% 4.0 mph SW6.4 kmh SW 8.0 mph12.9 kmh 30.52 in1033.5 mb 0.00 in0.0 mm 0.00 in/hr0.0 mm/hr 0.02 in0.5 mm
02:26 PM 28.1°F-2.2°C 12.4°F-10.9°C 52% 3.0 mph SW4.8 kmh SW 7.0 mph11.3 kmh 30.52 in1033.5 mb 0.00 in0.0 mm 0.00 in/hr0.0 mm/hr 0.02 in0.5 mm
02:31 PM 28.1°F-2.2°C 12.0°F-11.1°C 51% 5.0 mph WSW8.0 kmh WSW 7.0 mph11.3 kmh 30.52 in1033.5 mb 0.00 in0.0 mm 0.00 in/hr0.0 mm/hr 0.02 in0.5 mm
02:36 PM 27.7°F-2.4°C 11.6°F-11.3°C 51% 4.0 mph SW6.4 kmh SW 8.0 mph12.9 kmh 30.52 in1033.5 mb 0.00 in0.0 mm 0.00 in/hr0.0 mm/hr 0.02 in0.5 mm
02:41 PM 27.2°F-2.7°C 11.2°F-11.6°C 51% 3.0 mph WSW4.8 kmh WSW 8.0 mph12.9 kmh 30.52 in1033.5 mb 0.00 in0.0 mm 0.00 in/hr0.0 mm/hr 0.02 in0.5 mm
02:46 PM 27.0°F-2.8°C 11.4°F-11.4°C 52% 1.0 mph SW1.6 kmh SW 8.0 mph12.9 kmh 30.52 in1033.5 mb 0.00 in0.0 mm 0.00 in/hr0.0 mm/hr 0.02 in0.5 mm
02:51 PM 26.9°F-2.8°C 11.3°F-11.5°C 52% 2.0 mph SSW3.2 kmh SSW 8.0 mph12.9 kmh 30.52 in1033.5 mb 0.00 in0.0 mm 0.00 in/hr0.0 mm/hr 0.02 in0.5 mm
02:56 PM 26.6°F-3.0°C 11.5°F-11.4°C 53% 3.0 mph SW4.8 kmh SW 7.0 mph11.3 kmh 30.52 in1033.5 mb 0.00 in0.0 mm 0.00 in/hr0.0 mm/hr 0.02 in0.5 mm
03:01 PM 26.3°F-3.2°C 10.8°F-11.8°C 52% 4.0 mph SSW6.4 kmh SSW 12.0 mph19.3 kmh 30.52 in1033.5 mb 0.00 in0.0 mm 0.00 in/hr0.0 mm/hr 0.02 in0.5 mm
03:06 PM 26.0°F-3.3°C 10.9°F-11.7°C 53% 3.0 mph SW4.8 kmh SW 12.0 mph19.3 kmh 30.52 in1033.5 mb 0.00 in0.0 mm 0.00 in/hr0.0 mm/hr 0.02 in0.5 mm
03:11 PM 25.7°F-3.5°C 10.7°F-11.8°C 53% 2.0 mph SW3.2 kmh SW 12.0 mph19.3 kmh 30.52 in1033.5 mb 0.00 in0.0 mm 0.00 in/hr0.0 mm/hr 0.02 in0.5 mm
03:16 PM 25.6°F-3.6°C 11.0°F-11.7°C 54% 3.0 mph SW4.8 kmh SW 12.0 mph19.3 kmh 30.52 in1033.5 mb 0.00 in0.0 mm 0.00 in/hr0.0 mm/hr 0.02 in0.5 mm
03:21 PM 25.4°F-3.7°C 10.8°F-11.8°C 54% 3.0 mph SSW4.8 kmh SSW 8.0 mph12.9 kmh 30.52 in1033.5 mb 0.00 in0.0 mm 0.00 in/hr0.0 mm/hr 0.02 in0.5 mm
03:26 PM 25.3°F-3.7°C 11.2°F-11.6°C 55% 5.0 mph SW8.0 kmh SW 8.0 mph12.9 kmh 30.52 in1033.5 mb 0.00 in0.0 mm 0.00 in/hr0.0 mm/hr 0.02 in0.5 mm
03:31 PM 25.1°F-3.8°C 11.0°F-11.7°C 55% 3.0 mph SW4.8 kmh SW 7.0 mph11.3 kmh 30.52 in1033.5 mb 0.00 in0.0 mm 0.00 in/hr0.0 mm/hr 0.02 in0.5 mm
03:36 PM 25.0°F-3.9°C 10.9°F-11.7°C 55% 3.0 mph SW4.8 kmh SW 7.0 mph11.3 kmh 30.52 in1033.5 mb 0.00 in0.0 mm 0.00 in/hr0.0 mm/hr 0.02 in0.5 mm
03:41 PM 24.9°F-3.9°C 10.8°F-11.8°C 55% 2.0 mph WSW3.2 kmh WSW 7.0 mph11.3 kmh 30.52 in1033.5 mb 0.00 in0.0 mm 0.00 in/hr0.0 mm/hr 0.02 in0.5 mm
03:46 PM 24.8°F-4.0°C 11.1°F-11.6°C 56% 4.0 mph SSW6.4 kmh SSW 7.0 mph11.3 kmh 30.52 in1033.5 mb 0.00 in0.0 mm 0.00 in/hr0.0 mm/hr 0.02 in0.5 mm
03:51 PM 24.8°F-4.0°C 11.1°F-11.6°C 56% 5.0 mph S8.0 kmh S 7.0 mph11.3 kmh 30.52 in1033.5 mb 0.00 in0.0 mm 0.00 in/hr0.0 mm/hr 0.02 in0.5 mm
03:56 PM 24.7°F-4.1°C 11.0°F-11.7°C 56% 4.0 mph S6.4 kmh S 9.0 mph14.5 kmh 30.52 in1033.5 mb 0.00 in0.0 mm 0.00 in/hr0.0 mm/hr 0.02 in0.5 mm
04:01 PM 24.6°F-4.1°C 10.9°F-11.7°C 56% 1.0 mph SW1.6 kmh SW 9.0 mph14.5 kmh 30.52 in1033.5 mb 0.00 in0.0 mm 0.00 in/hr0.0 mm/hr 0.02 in0.5 mm
04:06 PM 24.6°F-4.1°C 10.9°F-11.7°C 56% 1.0 mph WSW1.6 kmh WSW 9.0 mph14.5 kmh 30.52 in1033.5 mb 0.00 in0.0 mm 0.00 in/hr0.0 mm/hr 0.02 in0.5 mm
04:11 PM 24.5°F-4.2°C 11.2°F-11.6°C 57% 1.0 mph SW1.6 kmh SW 9.0 mph14.5 kmh 30.52 in1033.5 mb 0.00 in0.0 mm 0.00 in/hr0.0 mm/hr 0.02 in0.5 mm
04:16 PM 24.5°F-4.2°C 11.2°F-11.6°C 57% 6.0 mph SSW9.7 kmh SSW 8.0 mph12.9 kmh 30.52 in1033.5 mb 0.00 in0.0 mm 0.00 in/hr0.0 mm/hr 0.02 in0.5 mm
04:21 PM 24.5°F-4.2°C 11.2°F-11.6°C 57% 3.0 mph SW4.8 kmh SW 13.0 mph20.9 kmh 30.53 in1033.9 mb 0.00 in0.0 mm 0.00 in/hr0.0 mm/hr 0.02 in0.5 mm
04:26 PM 24.5°F-4.2°C 11.2°F-11.6°C 57% 2.0 mph SSW3.2 kmh SSW 13.0 mph20.9 kmh 30.53 in1033.9 mb 0.00 in0.0 mm 0.00 in/hr0.0 mm/hr 0.02 in0.5 mm
04:31 PM 24.4°F-4.2°C 11.1°F-11.6°C 57% 8.0 mph SSW12.9 kmh SSW 13.0 mph20.9 kmh 30.53 in1033.9 mb 0.00 in0.0 mm 0.00 in/hr0.0 mm/hr 0.02 in0.5 mm
04:36 PM 24.3°F-4.3°C 11.0°F-11.7°C 57% 2.0 mph SW3.2 kmh SW 13.0 mph20.9 kmh 30.53 in1033.9 mb 0.00 in0.0 mm 0.00 in/hr0.0 mm/hr 0.02 in0.5 mm
04:41 PM 24.2°F-4.3°C 11.0°F-11.7°C 57% 6.0 mph SW9.7 kmh SW 12.0 mph19.3 kmh 30.53 in1033.9 mb 0.00 in0.0 mm 0.00 in/hr0.0 mm/hr 0.02 in0.5 mm
04:46 PM 24.0°F-4.4°C 10.8°F-11.8°C 57% Calm Calm 12.0 mph19.3 kmh 30.53 in1033.9 mb 0.00 in0.0 mm 0.00 in/hr0.0 mm/hr 0.02 in0.5 mm
04:51 PM 23.8°F-4.6°C 10.6°F-11.9°C 57% 2.0 mph SW3.2 kmh SW 6.0 mph9.7 kmh 30.53 in1033.9 mb 0.00 in0.0 mm 0.00 in/hr0.0 mm/hr 0.02 in0.5 mm
04:56 PM 23.7°F-4.6°C 10.9°F-11.7°C 58% Calm Calm 6.0 mph9.7 kmh 30.53 in1033.9 mb 0.00 in0.0 mm 0.00 in/hr0.0 mm/hr 0.02 in0.5 mm
05:01 PM 23.6°F-4.7°C 10.8°F-11.8°C 58% 6.0 mph SW9.7 kmh SW 6.0 mph9.7 kmh 30.52 in1033.5 mb 0.00 in0.0 mm 0.00 in/hr0.0 mm/hr 0.02 in0.5 mm
05:06 PM 23.4°F-4.8°C 10.6°F-11.9°C 58% 1.0 mph SW1.6 kmh SW 6.0 mph9.7 kmh 30.52 in1033.5 mb 0.00 in0.0 mm 0.00 in/hr0.0 mm/hr 0.02 in0.5 mm
05:11 PM 23.2°F-4.9°C 10.4°F-12.0°C 58% Calm Calm 6.0 mph9.7 kmh 30.52 in1033.5 mb 0.00 in0.0 mm 0.00 in/hr0.0 mm/hr 0.02 in0.5 mm
05:16 PM 23.1°F-4.9°C 10.7°F-11.8°C 59% 1.0 mph WSW1.6 kmh WSW 6.0 mph9.7 kmh 30.52 in1033.5 mb 0.00 in0.0 mm 0.00 in/hr0.0 mm/hr 0.02 in0.5 mm
05:21 PM 22.9°F-5.1°C 10.5°F-11.9°C 59% Calm Calm 6.0 mph9.7 kmh 30.52 in1033.5 mb 0.00 in0.0 mm 0.00 in/hr0.0 mm/hr 0.02 in0.5 mm
05:26 PM 22.8°F-5.1°C 10.4°F-12.0°C 59% 1.0 mph SW1.6 kmh SW 2.0 mph3.2 kmh 30.52 in1033.5 mb 0.00 in0.0 mm 0.00 in/hr0.0 mm/hr 0.02 in0.5 mm
05:31 PM 22.6°F-5.2°C 10.3°F-12.1°C 59% Calm Calm 3.0 mph4.8 kmh 30.52 in1033.5 mb 0.00 in0.0 mm 0.00 in/hr0.0 mm/hr 0.02 in0.5 mm
05:36 PM 22.4°F-5.3°C 10.1°F-12.2°C 59% 1.0 mph SSW1.6 kmh SSW 3.0 mph4.8 kmh 30.51 in1033.2 mb 0.00 in0.0 mm 0.00 in/hr0.0 mm/hr 0.02 in0.5 mm
05:41 PM 22.0°F-5.6°C 10.1°F-12.2°C 60% 1.0 mph SSW1.6 kmh SSW 3.0 mph4.8 kmh 30.52 in1033.5 mb 0.00 in0.0 mm 0.00 in/hr0.0 mm/hr 0.02 in0.5 mm
05:46 PM 21.7°F-5.7°C 9.8°F-12.3°C 60% 2.0 mph S3.2 kmh S 4.0 mph6.4 kmh 30.52 in1033.5 mb 0.00 in0.0 mm 0.00 in/hr0.0 mm/hr 0.02 in0.5 mm
05:51 PM 21.4°F-5.9°C 9.5°F-12.5°C 60% Calm Calm 4.0 mph6.4 kmh 30.51 in1033.2 mb 0.00 in0.0 mm 0.00 in/hr0.0 mm/hr 0.02 in0.5 mm
05:56 PM 21.2°F-6.0°C 9.7°F-12.4°C 61% Calm Calm -- 30.51 in1033.2 mb 0.00 in0.0 mm 0.00 in/hr0.0 mm/hr 0.02 in0.5 mm
06:01 PM 21.0°F-6.1°C 9.9°F-12.3°C 62% Calm Calm -- 30.51 in1033.2 mb 0.00 in0.0 mm 0.00 in/hr0.0 mm/hr 0.02 in0.5 mm
06:06 PM 20.8°F-6.2°C 9.7°F-12.4°C 62% Calm Calm -- 30.51 in1033.2 mb 0.00 in0.0 mm 0.00 in/hr0.0 mm/hr 0.02 in0.5 mm
06:11 PM 20.5°F-6.4°C 9.4°F-12.6°C 62% Calm Calm -- 30.51 in1033.2 mb 0.00 in0.0 mm 0.00 in/hr0.0 mm/hr 0.02 in0.5 mm
06:16 PM 20.2°F-6.6°C 9.1°F-12.7°C 62% Calm Calm -- 30.51 in1033.2 mb 0.00 in0.0 mm 0.00 in/hr0.0 mm/hr 0.02 in0.5 mm
06:21 PM 19.9°F-6.7°C 8.9°F-12.8°C 62% Calm Calm -- 30.51 in1033.2 mb 0.00 in0.0 mm 0.00 in/hr0.0 mm/hr 0.02 in0.5 mm
06:26 PM 19.5°F-6.9°C 8.8°F-12.9°C 63% Calm Calm -- 30.51 in1033.2 mb 0.00 in0.0 mm 0.00 in/hr0.0 mm/hr 0.02 in0.5 mm
06:31 PM 19.2°F-7.1°C 8.6°F-13.0°C 63% Calm Calm 1.0 mph1.6 kmh 30.51 in1033.2 mb 0.00 in0.0 mm 0.00 in/hr0.0 mm/hr 0.02 in0.5 mm
06:36 PM 18.8°F-7.3°C 8.5°F-13.1°C 64% 1.0 mph S1.6 kmh S 1.0 mph1.6 kmh 30.50 in1032.8 mb 0.00 in0.0 mm 0.00 in/hr0.0 mm/hr 0.02 in0.5 mm
06:41 PM 18.5°F-7.5°C 8.3°F-13.2°C 64% Calm Calm 2.0 mph3.2 kmh 30.50 in1032.8 mb 0.00 in0.0 mm 0.00 in/hr0.0 mm/hr 0.02 in0.5 mm
06:46 PM 18.2°F-7.7°C 8.3°F-13.2°C 65% Calm Calm -- 30.50 in1032.8 mb 0.00 in0.0 mm 0.00 in/hr0.0 mm/hr 0.02 in0.5 mm
06:51 PM 17.9°F-7.8°C 8.4°F-13.1°C 66% Calm Calm 1.0 mph1.6 kmh 30.50 in1032.8 mb 0.00 in0.0 mm 0.00 in/hr0.0 mm/hr 0.02 in0.5 mm
06:56 PM 17.6°F-8.0°C 8.1°F-13.3°C 66% Calm Calm 2.0 mph3.2 kmh 30.50 in1032.8 mb 0.00 in0.0 mm 0.00 in/hr0.0 mm/hr 0.02 in0.5 mm
07:01 PM 17.4°F-8.1°C 7.9°F-13.4°C 66% 1.0 mph S1.6 kmh S 2.0 mph3.2 kmh 30.50 in1032.8 mb 0.00 in0.0 mm 0.00 in/hr0.0 mm/hr 0.02 in0.5 mm
07:06 PM 17.1°F-8.3°C 7.6°F-13.6°C 66% Calm Calm 2.0 mph3.2 kmh 30.50 in1032.8 mb 0.00 in0.0 mm 0.00 in/hr0.0 mm/hr 0.02 in0.5 mm
07:11 PM 16.9°F-8.4°C 7.8°F-13.4°C 67% Calm Calm 1.0 mph1.6 kmh 30.50 in1032.8 mb 0.00 in0.0 mm 0.00 in/hr0.0 mm/hr 0.02 in0.5 mm
07:16 PM 16.6°F-8.6°C 7.5°F-13.6°C 67% 2.0 mph S3.2 kmh S 3.0 mph4.8 kmh 30.50 in1032.8 mb 0.00 in0.0 mm 0.00 in/hr0.0 mm/hr 0.02 in0.5 mm
07:21 PM 16.4°F-8.7°C 7.3°F-13.7°C 67% 2.0 mph S3.2 kmh S 4.0 mph6.4 kmh 30.50 in1032.8 mb 0.00 in0.0 mm 0.00 in/hr0.0 mm/hr 0.02 in0.5 mm
07:26 PM 16.3°F-8.7°C 7.5°F-13.6°C 68% Calm Calm 2.0 mph3.2 kmh 30.50 in1032.8 mb 0.00 in0.0 mm 0.00 in/hr0.0 mm/hr 0.02 in0.5 mm
07:31 PM 16.3°F-8.7°C 7.9°F-13.4°C 69% 1.0 mph S1.6 kmh S 3.0 mph4.8 kmh 30.50 in1032.8 mb 0.00 in0.0 mm 0.00 in/hr0.0 mm/hr 0.02 in0.5 mm
07:36 PM 16.4°F-8.7°C 8.3°F-13.2°C 70% Calm Calm 1.0 mph1.6 kmh 30.50 in1032.8 mb 0.00 in0.0 mm 0.00 in/hr0.0 mm/hr 0.02 in0.5 mm
07:41 PM 16.5°F-8.6°C 8.4°F-13.1°C 70% Calm Calm 2.0 mph3.2 kmh 30.49 in1032.5 mb 0.00 in0.0 mm 0.00 in/hr0.0 mm/hr 0.02 in0.5 mm
07:46 PM 16.5°F-8.6°C 8.4°F-13.1°C 70% Calm Calm -- 30.49 in1032.5 mb 0.00 in0.0 mm 0.00 in/hr0.0 mm/hr 0.02 in0.5 mm
07:51 PM 16.6°F-8.6°C 8.8°F-12.9°C 71% Calm Calm 2.0 mph3.2 kmh 30.48 in1032.2 mb 0.00 in0.0 mm 0.00 in/hr0.0 mm/hr 0.02 in0.5 mm
07:56 PM 16.7°F-8.5°C 8.9°F-12.8°C 71% 2.0 mph S3.2 kmh S 2.0 mph3.2 kmh 30.48 in1032.2 mb 0.00 in0.0 mm 0.00 in/hr0.0 mm/hr 0.02 in0.5 mm
08:01 PM 17.0°F-8.3°C 9.2°F-12.7°C 71% 1.0 mph SE1.6 kmh SE 4.0 mph6.4 kmh 30.48 in1032.2 mb 0.00 in0.0 mm 0.00 in/hr0.0 mm/hr 0.02 in0.5 mm
08:06 PM 17.1°F-8.3°C 9.3°F-12.6°C 71% 1.0 mph SE1.6 kmh SE 4.0 mph6.4 kmh 30.48 in1032.2 mb 0.00 in0.0 mm 0.00 in/hr0.0 mm/hr 0.02 in0.5 mm
08:11 PM 17.1°F-8.3°C 9.0°F-12.8°C 70% Calm Calm 3.0 mph4.8 kmh 30.48 in1032.2 mb 0.00 in0.0 mm 0.00 in/hr0.0 mm/hr 0.02 in0.5 mm
08:16 PM 16.9°F-8.4°C 8.8°F-12.9°C 70% Calm Calm 3.0 mph4.8 kmh 30.48 in1032.2 mb 0.00 in0.0 mm 0.00 in/hr0.0 mm/hr 0.02 in0.5 mm
08:21 PM 16.7°F-8.5°C 8.3°F-13.2°C 69% 1.0 mph SSE1.6 kmh SSE 1.0 mph1.6 kmh 30.48 in1032.2 mb 0.00 in0.0 mm 0.00 in/hr0.0 mm/hr 0.02 in0.5 mm
08:26 PM 16.5°F-8.6°C 8.1°F-13.3°C 69% Calm Calm -- 30.48 in1032.2 mb 0.00 in0.0 mm 0.00 in/hr0.0 mm/hr 0.02 in0.5 mm
08:31 PM 16.4°F-8.7°C 8.0°F-13.3°C 69% Calm Calm 1.0 mph1.6 kmh 30.48 in1032.2 mb 0.00 in0.0 mm 0.00 in/hr0.0 mm/hr 0.02 in0.5 mm
08:36 PM 16.1°F-8.8°C 7.7°F-13.5°C 69% 1.0 mph SSE1.6 kmh SSE 2.0 mph3.2 kmh 30.48 in1032.2 mb 0.00 in0.0 mm 0.00 in/hr0.0 mm/hr 0.02 in0.5 mm
08:41 PM 16.0°F-8.9°C 7.6°F-13.6°C 69% 1.0 mph SSE1.6 kmh SSE 2.0 mph3.2 kmh 30.48 in1032.2 mb 0.00 in0.0 mm 0.00 in/hr0.0 mm/hr 0.02 in0.5 mm
08:46 PM 15.7°F-9.1°C 7.6°F-13.6°C 70% 2.0 mph SSE3.2 kmh SSE 2.0 mph3.2 kmh 30.48 in1032.2 mb 0.00 in0.0 mm 0.00 in/hr0.0 mm/hr 0.02 in0.5 mm
08:51 PM 15.6°F-9.1°C 7.5°F-13.6°C 70% 2.0 mph SSE3.2 kmh SSE 3.0 mph4.8 kmh 30.47 in1031.8 mb 0.00 in0.0 mm 0.00 in/hr0.0 mm/hr 0.02 in0.5 mm
08:56 PM 15.4°F-9.2°C 7.3°F-13.7°C 70% 1.0 mph SE1.6 kmh SE 3.0 mph4.8 kmh 30.47 in1031.8 mb 0.00 in0.0 mm 0.00 in/hr0.0 mm/hr 0.02 in0.5 mm
09:01 PM 15.2°F-9.3°C 7.1°F-13.8°C 70% 2.0 mph SSE3.2 kmh SSE 3.0 mph4.8 kmh 30.47 in1031.8 mb 0.00 in0.0 mm 0.00 in/hr0.0 mm/hr 0.02 in0.5 mm
09:06 PM 15.1°F-9.4°C 7.4°F-13.7°C 71% 2.0 mph S3.2 kmh S 3.0 mph4.8 kmh 30.47 in1031.8 mb 0.00 in0.0 mm 0.00 in/hr0.0 mm/hr 0.02 in0.5 mm
09:11 PM 15.0°F-9.4°C 7.3°F-13.7°C 71% 1.0 mph SSE1.6 kmh SSE 3.0 mph4.8 kmh 30.47 in1031.8 mb 0.00 in0.0 mm 0.00 in/hr0.0 mm/hr 0.02 in0.5 mm
09:16 PM 14.9°F-9.5°C 7.2°F-13.8°C 71% Calm Calm 3.0 mph4.8 kmh 30.47 in1031.8 mb 0.00 in0.0 mm 0.00 in/hr0.0 mm/hr 0.02 in0.5 mm
09:21 PM 14.9°F-9.5°C 7.5°F-13.6°C 72% 2.0 mph SSE3.2 kmh SSE 5.0 mph8.0 kmh 30.46 in1031.5 mb 0.00 in0.0 mm 0.00 in/hr0.0 mm/hr 0.02 in0.5 mm
09:26 PM 15.0°F-9.4°C 7.6°F-13.6°C 72% Calm Calm 5.0 mph8.0 kmh 30.46 in1031.5 mb 0.00 in0.0 mm 0.00 in/hr0.0 mm/hr 0.02 in0.5 mm
09:31 PM 15.1°F-9.4°C 7.7°F-13.5°C 72% Calm Calm 5.0 mph8.0 kmh 30.46 in1031.5 mb 0.00 in0.0 mm 0.00 in/hr0.0 mm/hr 0.02 in0.5 mm
09:36 PM 15.2°F-9.3°C 8.1°F-13.3°C 73% Calm Calm 5.0 mph8.0 kmh 30.46 in1031.5 mb 0.00 in0.0 mm 0.00 in/hr0.0 mm/hr 0.02 in0.5 mm
09:41 PM 15.3°F-9.3°C 7.9°F-13.4°C 72% 2.0 mph S3.2 kmh S 5.0 mph8.0 kmh 30.46 in1031.5 mb 0.00 in0.0 mm 0.00 in/hr0.0 mm/hr 0.02 in0.5 mm
09:46 PM 15.4°F-9.2°C 8.3°F-13.2°C 73% 2.0 mph SSE3.2 kmh SSE 5.0 mph8.0 kmh 30.46 in1031.5 mb 0.00 in0.0 mm 0.00 in/hr0.0 mm/hr 0.02 in0.5 mm
09:51 PM 15.5°F-9.2°C 8.4°F-13.1°C 73% Calm Calm 4.0 mph6.4 kmh 30.45 in1031.2 mb 0.00 in0.0 mm 0.00 in/hr0.0 mm/hr 0.02 in0.5 mm
09:56 PM 15.6°F-9.1°C 8.2°F-13.2°C 72% Calm Calm 4.0 mph6.4 kmh 30.45 in1031.2 mb 0.00 in0.0 mm 0.00 in/hr0.0 mm/hr 0.02 in0.5 mm
10:01 PM 15.7°F-9.1°C 8.3°F-13.2°C 72% 1.0 mph SSE1.6 kmh SSE 4.0 mph6.4 kmh 30.45 in1031.2 mb 0.00 in0.0 mm 0.00 in/hr0.0 mm/hr 0.02 in0.5 mm
10:06 PM 15.5°F-9.2°C 8.1°F-13.3°C 72% Calm Calm 4.0 mph6.4 kmh 30.45 in1031.2 mb 0.00 in0.0 mm 0.00 in/hr0.0 mm/hr 0.02 in0.5 mm
10:11 PM 15.4°F-9.2°C 7.7°F-13.5°C 71% 1.0 mph SE1.6 kmh SE 4.0 mph6.4 kmh 30.45 in1031.2 mb 0.00 in0.0 mm 0.00 in/hr0.0 mm/hr 0.02 in0.5 mm
10:16 PM 15.4°F-9.2°C 7.7°F-13.5°C 71% 2.0 mph SSE3.2 kmh SSE 4.0 mph6.4 kmh 30.44 in1030.8 mb 0.00 in0.0 mm 0.00 in/hr0.0 mm/hr 0.02 in0.5 mm
10:21 PM 15.3°F-9.3°C 7.6°F-13.6°C 71% Calm Calm 4.0 mph6.4 kmh 30.44 in1030.8 mb 0.00 in0.0 mm 0.00 in/hr0.0 mm/hr 0.02 in0.5 mm
10:26 PM 15.1°F-9.4°C 7.4°F-13.7°C 71% 2.0 mph S3.2 kmh S 4.0 mph6.4 kmh 30.44 in1030.8 mb 0.00 in0.0 mm 0.00 in/hr0.0 mm/hr 0.02 in0.5 mm
10:31 PM 15.0°F-9.4°C 7.3°F-13.7°C 71% 1.0 mph S1.6 kmh S 4.0 mph6.4 kmh 30.44 in1030.8 mb 0.00 in0.0 mm 0.00 in/hr0.0 mm/hr 0.02 in0.5 mm
10:36 PM 14.8°F-9.6°C 7.1°F-13.8°C 71% 2.0 mph S3.2 kmh S 4.0 mph6.4 kmh 30.44 in1030.8 mb 0.00 in0.0 mm 0.00 in/hr0.0 mm/hr 0.02 in0.5 mm
10:41 PM 14.7°F-9.6°C 7.0°F-13.9°C 71% 2.0 mph S3.2 kmh S 2.0 mph3.2 kmh 30.44 in1030.8 mb 0.00 in0.0 mm 0.00 in/hr0.0 mm/hr 0.02 in0.5 mm
10:46 PM 14.5°F-9.7°C 6.8°F-14.0°C 71% 1.0 mph S1.6 kmh S 3.0 mph4.8 kmh 30.44 in1030.8 mb 0.00 in0.0 mm 0.00 in/hr0.0 mm/hr 0.02 in0.5 mm
10:51 PM 14.3°F-9.8°C 6.6°F-14.1°C 71% 1.0 mph S1.6 kmh S 3.0 mph4.8 kmh 30.44 in1030.8 mb 0.00 in0.0 mm 0.00 in/hr0.0 mm/hr 0.02 in0.5 mm
10:56 PM 14.2°F-9.9°C 6.5°F-14.2°C 71% 2.0 mph SSE3.2 kmh SSE 3.0 mph4.8 kmh 30.44 in1030.8 mb 0.00 in0.0 mm 0.00 in/hr0.0 mm/hr 0.02 in0.5 mm
11:01 PM 14.2°F-9.9°C 6.8°F-14.0°C 72% 2.0 mph SSE3.2 kmh SSE 4.0 mph6.4 kmh 30.44 in1030.8 mb 0.00 in0.0 mm 0.00 in/hr0.0 mm/hr 0.02 in0.5 mm
11:06 PM 14.2°F-9.9°C 6.8°F-14.0°C 72% 2.0 mph S3.2 kmh S 4.0 mph6.4 kmh 30.44 in1030.8 mb 0.00 in0.0 mm 0.00 in/hr0.0 mm/hr 0.02 in0.5 mm
11:11 PM 14.2°F-9.9°C 6.8°F-14.0°C 72% 2.0 mph S3.2 kmh S 4.0 mph6.4 kmh 30.43 in1030.5 mb 0.00 in0.0 mm 0.00 in/hr0.0 mm/hr 0.02 in0.5 mm
11:16 PM 14.3°F-9.8°C 7.2°F-13.8°C 73% 2.0 mph S3.2 kmh S 4.0 mph6.4 kmh 30.43 in1030.5 mb 0.00 in0.0 mm 0.00 in/hr0.0 mm/hr 0.02 in0.5 mm
11:21 PM 14.4°F-9.8°C 7.3°F-13.7°C 73% 2.0 mph SSE3.2 kmh SSE 4.0 mph6.4 kmh 30.43 in1030.5 mb 0.00 in0.0 mm 0.00 in/hr0.0 mm/hr 0.02 in0.5 mm
11:26 PM 14.4°F-9.8°C 7.3°F-13.7°C 73% 1.0 mph SSE1.6 kmh SSE 4.0 mph6.4 kmh 30.43 in1030.5 mb 0.00 in0.0 mm 0.00 in/hr0.0 mm/hr 0.02 in0.5 mm
11:31 PM 14.6°F-9.7°C 7.5°F-13.6°C 73% Calm Calm 4.0 mph6.4 kmh 30.43 in1030.5 mb 0.00 in0.0 mm 0.00 in/hr0.0 mm/hr 0.02 in0.5 mm
11:36 PM 14.8°F-9.6°C 8.0°F-13.3°C 74% 5.0 mph SSW8.0 kmh SSW 5.0 mph8.0 kmh 30.43 in1030.5 mb 0.00 in0.0 mm 0.00 in/hr0.0 mm/hr 0.02 in0.5 mm
11:41 PM 15.0°F-9.4°C 8.2°F-13.2°C 74% Calm Calm 5.0 mph8.0 kmh 30.43 in1030.5 mb 0.00 in0.0 mm 0.00 in/hr0.0 mm/hr 0.02 in0.5 mm
11:46 PM 15.2°F-9.3°C 8.4°F-13.1°C 74% 1.0 mph SSE1.6 kmh SSE 5.0 mph8.0 kmh 30.42 in1030.1 mb 0.00 in0.0 mm 0.00 in/hr0.0 mm/hr 0.02 in0.5 mm
11:51 PM 15.5°F-9.2°C 8.7°F-12.9°C 74% 1.0 mph SE1.6 kmh SE 5.0 mph8.0 kmh 30.42 in1030.1 mb 0.00 in0.0 mm 0.00 in/hr0.0 mm/hr 0.02 in0.5 mm
11:56 PM 15.8°F-9.0°C 8.7°F-12.9°C 73% Calm Calm 5.0 mph8.0 kmh 30.42 in1030.1 mb 0.00 in0.0 mm 0.00 in/hr0.0 mm/hr 0.02 in0.5 mm